Time;durP1;ratioP1;P1;durP2;ratioP2;P2;SDS_P1;SDS_P2;PMS_P1;PMS_P2;Temp;Humidity;BMP_temperature;BMP_pressure;BME280_temperature;BME280_humidity;BME280_pressure;Samples;Min_cycle;Max_cycle;Signal;HPM_P1;HPM_P2
2022/01/12 16:54:12;;;;;;;1999.90;999.90;;;-12.40;99.90;;;;;;5086337;28;20401;-94
2022/01/12 16:56:38;;;;;;;1999.90;999.90;;;;;;;;;;5052348;28;20064;-95
2022/01/12 16:59:04;;;;;;;1999.90;999.90;;;;;;;;;;5050379;28;20025;-96
2022/01/12 17:01:30;;;;;;;1999.90;999.90;;;;;;;;;;5050091;28;20025;-95
2022/01/12 17:03:56;;;;;;;1643.47;999.90;;;-12.00;99.90;;;;;;5050163;28;20021;-95
2022/01/12 17:06:22;;;;;;;1402.00;999.90;;;-11.90;99.90;;;;;;5050067;28;20082;-95
2022/01/12 17:08:47;;;;;;;1534.82;999.90;;;-11.80;99.90;;;;;;5050000;28;20021;-96
2022/01/12 17:11:17;;;;;;;1165.32;929.17;;;-11.80;99.90;;;;;;5050150;28;20064;-94
2022/01/12 17:13:47;;;;;;;960.60;821.42;;;-11.70;99.90;;;;;;5050072;28;20025;-95
2022/01/12 17:16:34;;;;;;;1500.70;999.90;;;-11.50;99.90;;;;;;5049887;28;20115;-95
2022/01/12 17:19:10;;;;;;;693.95;629.15;;;-11.50;99.90;;;;;;5050130;28;20436;-95
2022/01/12 17:21:38;;;;;;;1089.80;881.53;;;-11.50;99.90;;;;;;5051794;28;20374;-96
2022/01/12 17:24:03;;;;;;;1107.85;866.42;;;-11.40;99.90;;;;;;5049673;28;20029;-95
2022/01/12 17:26:42;;;;;;;494.55;454.45;;;-11.40;99.90;;;;;;5048255;28;20059;-95
2022/01/12 17:29:20;;;;;;;793.83;708.40;;;-11.30;99.90;;;;;;5029874;28;20049;-95
2022/01/12 17:31:46;;;;;;;;;;;-11.30;99.90;;;;;;5048166;28;20025;-96
2022/01/12 17:34:14;;;;;;;;;;;-11.30;99.90;;;;;;5050162;28;20018;-95
2022/01/12 17:36:42;;;;;;;;;;;-11.30;99.90;;;;;;5049672;28;19905;-95
2022/01/12 17:39:15;;;;;;;;;;;-11.30;99.90;;;;;;5050011;28;19912;-95
2022/01/12 17:41:43;;;;;;;;;;;-11.30;99.90;;;;;;5050385;28;19905;-95
2022/01/12 17:44:09;;;;;;;;;;;-11.40;99.90;;;;;;5036979;28;19909;-95
2022/01/12 17:46:38;;;;;;;;;;;-11.40;99.90;;;;;;5030019;28;19984;-95
2022/01/12 17:49:06;;;;;;;;;;;-10.40;99.90;;;;;;5048680;28;19913;-96
2022/01/12 17:51:31;;;;;;;;;;;-11.40;99.90;;;;;;5049743;28;20000;-96
2022/01/12 17:53:57;;;;;;;;;;;-11.40;99.90;;;;;;5050445;28;19925;-95
2022/01/12 17:56:24;;;;;;;;;;;-11.40;99.90;;;;;;5051340;28;19988;-96
2022/01/12 17:58:49;;;;;;;;;;;-11.40;99.90;;;;;;5049653;28;19905;-95
2022/01/12 18:01:16;;;;;;;;;;;-11.40;99.90;;;;;;5049586;28;19935;-95
2022/01/12 18:03:42;;;;;;;;;;;-11.40;99.90;;;;;;5046267;28;19913;-96
2022/01/12 18:06:08;;;;;;;;;;;-11.40;99.90;;;;;;5036430;28;19912;-96
2022/01/12 18:08:34;;;;;;;;;;;-11.30;99.90;;;;;;5034756;28;19908;-95
2022/01/12 18:11:00;;;;;;;;;;;-11.30;99.90;;;;;;5036183;28;19954;-95
2022/01/12 18:13:26;;;;;;;;;;;-11.30;99.90;;;;;;5033541;28;20255;-95
2022/01/12 18:15:55;;;;;;;;;;;-11.30;99.90;;;;;;5056113;28;19915;-95
2022/01/12 18:18:23;;;;;;;;;;;-11.20;99.90;;;;;;5051793;28;20335;-96
2022/01/12 18:20:49;;;;;;;;;;;-11.20;99.90;;;;;;5035715;28;20381;-95
2022/01/12 18:23:15;;;;;;;;;;;-11.20;99.90;;;;;;5036008;28;19912;-96
2022/01/12 18:25:43;;;;;;;;;;;-11.20;99.90;;;;;;5036816;28;19967;-96
2022/01/12 18:28:08;;;;;;;;;;;-11.20;99.90;;;;;;5037337;28;19911;-95
2022/01/12 18:30:34;;;;;;;;;;;-11.20;99.90;;;;;;5041219;28;19909;-96
2022/01/12 18:32:59;;;;;;;;;;;-11.10;99.90;;;;;;5038696;28;19909;-96
2022/01/12 18:35:25;;;;;;;;;;;-11.20;99.90;;;;;;5038186;28;19909;-95
2022/01/12 18:37:51;;;;;;;;;;;-11.20;99.90;;;;;;5036238;28;19905;-96
2022/01/12 18:40:20;;;;;;;;;;;-11.20;99.90;;;;;;5036445;28;19905;-96
2022/01/12 18:42:47;;;;;;;;;;;-11.20;99.90;;;;;;5035729;28;19909;-96
2022/01/12 18:45:12;;;;;;;;;;;-7.40;99.90;;;;;;5037849;28;19915;-96
2022/01/12 18:47:39;;;;;;;;;;;-11.20;99.90;;;;;;5035712;28;19983;-95
2022/01/12 18:50:08;;;;;;;;;;;-11.20;99.90;;;;;;5046372;28;19905;-96
2022/01/12 18:52:37;;;;;;;;;;;-11.30;99.90;;;;;;5040693;28;19975;-96
2022/01/12 18:55:04;;;;;;;;;;;-11.30;99.90;;;;;;5035367;28;19905;-96
2022/01/12 18:57:29;;;;;;;;;;;-11.20;99.90;;;;;;5035334;28;19967;-96
2022/01/12 18:59:55;;;;;;;;;;;-11.20;99.90;;;;;;5035296;28;19905;-95
2022/01/12 19:02:20;;;;;;;;;;;-11.20;99.90;;;;;;5033546;28;19959;-94
2022/01/12 19:04:46;;;;;;;;;;;-11.20;99.90;;;;;;5028386;28;19909;-93
2022/01/12 19:07:12;;;;;;;;;;;-11.10;99.90;;;;;;5032895;28;19913;-93
2022/01/12 19:09:37;;;;;;;;;;;-11.10;99.90;;;;;;5034490;28;20251;-92
2022/01/12 19:12:03;;;;;;;;;;;-11.10;99.90;;;;;;5034241;28;20000;-93
2022/01/12 19:14:29;;;;;;;;;;;-11.20;99.90;;;;;;5014181;28;19921;-92
2022/01/12 19:16:55;;;;;;;;;;;-11.00;99.90;;;;;;5046546;28;19909;-93
2022/01/12 19:19:20;;;;;;;;;;;-11.00;99.90;;;;;;5040339;28;19969;-93
2022/01/12 19:21:47;;;;;;;;;;;-11.00;99.90;;;;;;5032695;28;19917;-92
2022/01/12 19:24:12;;;;;;;;;;;-11.00;99.90;;;;;;5033302;28;19952;-92
2022/01/12 19:26:39;;;;;;;;;;;-10.90;99.90;;;;;;5033361;28;19998;-92
2022/01/12 19:29:05;;;;;;;;;;;-11.00;99.90;;;;;;5033872;28;19926;-93
2022/01/12 19:31:31;;;;;;;;;;;-11.00;99.90;;;;;;5035979;28;19981;-96
2022/01/12 19:33:57;;;;;;;;;;;-11.00;99.90;;;;;;5040673;28;19912;-96
2022/01/12 19:36:24;;;;;;;;;;;-11.00;99.90;;;;;;5040121;28;19995;-96
2022/01/12 19:38:50;;;;;;;;;;;-11.00;99.90;;;;;;5038250;28;19952;-96
2022/01/12 19:41:16;;;;;;;;;;;-11.00;99.90;;;;;;5040385;28;19909;-96
2022/01/12 19:43:44;;;;;;;;;;;-11.00;99.90;;;;;;5024173;28;19917;-95
2022/01/12 19:46:10;;;;;;;;;;;-11.00;99.90;;;;;;5037490;28;19905;-96
2022/01/12 19:48:36;;;;;;;;;;;-11.00;99.90;;;;;;5036346;28;19955;-95
2022/01/12 20:26:52;;;;;;;;;;;;;;;;;;5151551;27;19920;-96
2022/01/12 20:29:21;;;;;;;;;;;;;;;;;;5146083;28;19941;-96
2022/01/12 20:31:48;;;;;;;;;;;;;;;;;;5148839;28;19906;-96
2022/01/12 20:34:16;;;;;;;;;;;;;;;;;;5126589;28;19971;-96
2022/01/12 20:36:42;;;;;;;;;;;;;;;;;;5133178;28;19916;-96
2022/01/12 20:39:31;;;;;;;;;;;-11.60;99.90;;;;;;5132355;28;19900;-96
2022/01/12 20:42:02;;;;;;;;;;;-12.10;99.90;;;;;;5154206;22;19924;-96
2022/01/12 20:44:32;;;;;;;;;;;-12.10;99.90;;;;;;5085618;28;19923;-96
2022/01/12 20:47:25;;;;;;;;;;;-12.00;99.90;;;;;;5091059;28;19897;-96
2022/01/12 20:49:53;;;;;;;;;;;-11.90;99.90;;;;;;5093480;28;19909;-96
2022/01/12 20:58:48;;;;;;;;;;;-11.90;99.90;;;;;;5093101;28;19916;-96
2022/01/12 21:01:34;;;;;;;;;;;-11.90;99.90;;;;;;5066273;28;19913;-96
2022/01/12 21:04:00;;;;;;;;;;;-11.90;99.90;;;;;;5046749;28;20420;-96
